createdAt,value
2023-05-14T00:02:16.402Z,102058.03
2023-05-14T00:04:43.545Z,102060.06
2023-05-14T00:07:10.556Z,102068.44
2023-05-14T00:09:37.663Z,102062.19
2023-05-14T00:12:05.097Z,102063.47
2023-05-14T00:14:32.143Z,102061.75
2023-05-14T00:16:59.920Z,102065.91
2023-05-14T00:19:27.174Z,102059.63
2023-05-14T00:21:54.122Z,102059.53
2023-05-14T00:24:21.084Z,102059.31
2023-05-14T00:26:48.097Z,102055.78
2023-05-14T00:29:15.061Z,102045.63
2023-05-14T00:31:42.078Z,102046.13
2023-05-14T00:34:09.084Z,102054.50
2023-05-14T00:36:36.053Z,102053.13
2023-05-14T00:39:03.889Z,102042.84
2023-05-14T00:41:30.964Z,102041.88
2023-05-14T00:43:57.935Z,102045.41
2023-05-14T00:46:25.021Z,102033.91
2023-05-14T00:48:52.204Z,102036.03
2023-05-14T00:51:19.820Z,102037.84
2023-05-14T00:53:47.289Z,102039.44
2023-05-14T00:56:15.303Z,102037.09
2023-05-14T00:58:42.268Z,102036.00
2023-05-14T01:01:09.551Z,102034.88
2023-05-14T01:03:36.751Z,102032.38
2023-05-14T01:06:21.708Z,102039.75
2023-05-14T01:09:24.536Z,102040.72
2023-05-14T01:12:03.322Z,102046.66
2023-05-14T01:14:41.247Z,102037.13
2023-05-14T01:17:12.276Z,102029.00
2023-05-14T01:19:44.613Z,102037.41
2023-05-14T01:22:12.125Z,102037.69
2023-05-14T01:24:39.521Z,102029.81
2023-05-14T01:27:22.032Z,102037.28
2023-05-14T01:30:10.717Z,102030.66
2023-05-14T01:32:39.581Z,102028.63
2023-05-14T01:35:08.165Z,102029.91
2023-05-14T01:37:36.672Z,102021.78
2023-05-14T01:40:04.723Z,102018.44
2023-05-14T01:42:32.796Z,102020.53
2023-05-14T01:45:00.026Z,102020.09
2023-05-14T01:47:27.092Z,102015.59
2023-05-14T01:49:54.084Z,102018.31
2023-05-14T01:52:21.473Z,102007.78
2023-05-14T01:54:48.796Z,102007.31
2023-05-14T01:57:15.800Z,102015.00
2023-05-14T01:59:42.795Z,102011.88
2023-05-14T02:02:09.843Z,102008.31
2023-05-14T02:04:36.854Z,102000.84
2023-05-14T02:07:03.834Z,102001.50
2023-05-14T02:09:30.987Z,102000.50
2023-05-14T02:11:57.990Z,101993.19
2023-05-14T02:14:24.962Z,102002.47
2023-05-14T02:16:51.910Z,101986.16
2023-05-14T02:19:19.029Z,101989.81
2023-05-14T02:21:46.079Z,101993.13
2023-05-14T02:24:13.039Z,101981.34
2023-05-14T02:26:40.074Z,101982.31
2023-05-14T02:29:07.058Z,101973.56
2023-05-14T02:31:34.448Z,101978.50
2023-05-14T02:34:02.288Z,101976.38
2023-05-14T02:36:29.264Z,101961.59
2023-05-14T02:38:57.336Z,101965.75
2023-05-14T02:41:24.370Z,101968.16
2023-05-14T02:43:52.521Z,101965.50
2023-05-14T02:46:19.764Z,101960.31
2023-05-14T02:48:46.718Z,101960.88
2023-05-14T02:51:13.783Z,101967.78
2023-05-14T02:53:40.735Z,101974.53
2023-05-14T02:56:08.321Z,101970.25
2023-05-14T02:58:35.475Z,101968.41
2023-05-14T03:01:02.531Z,101971.75
2023-05-14T03:03:30.906Z,101973.72
2023-05-14T03:05:58.503Z,101966.22
2023-05-14T03:08:25.914Z,101970.56
2023-05-14T03:10:52.908Z,101959.44
2023-05-14T03:13:20.961Z,101956.28
2023-05-14T03:15:48.072Z,101961.72
2023-05-14T03:18:15.247Z,101959.53
2023-05-14T03:20:42.510Z,101960.47
2023-05-14T03:23:09.626Z,101963.53
2023-05-14T03:25:36.584Z,101969.81
2023-05-14T03:28:04.249Z,101970.06
2023-05-14T03:30:31.325Z,101978.16
2023-05-14T03:32:58.750Z,101973.22
2023-05-14T03:35:25.874Z,101974.91
2023-05-14T03:37:53.253Z,101979.88
2023-05-14T03:40:23.425Z,101980.03
2023-05-14T03:42:51.061Z,101977.06
2023-05-14T03:45:18.033Z,101979.00
2023-05-14T03:47:45.075Z,101984.59
2023-05-14T03:50:12.069Z,101975.25
2023-05-14T03:52:39.271Z,101978.34
2023-05-14T03:55:06.803Z,101970.53
2023-05-14T03:57:33.832Z,101973.91
2023-05-14T04:00:00.834Z,101975.50
2023-05-14T04:02:28.057Z,101975.69
2023-05-14T04:04:55.129Z,101976.81
2023-05-14T04:07:22.335Z,101979.56
2023-05-14T04:09:49.366Z,101974.59
2023-05-14T04:12:16.387Z,101964.78
2023-05-14T04:14:43.464Z,101970.34
2023-05-14T04:17:10.438Z,101974.00
2023-05-14T04:19:37.494Z,101975.03
2023-05-14T04:22:04.781Z,101972.81
2023-05-14T04:24:31.806Z,101968.91
2023-05-14T04:26:58.779Z,101963.84
2023-05-14T04:29:25.885Z,101966.22
2023-05-14T04:31:53.895Z,101973.28
2023-05-14T04:34:20.874Z,101964.25
2023-05-14T04:36:47.917Z,101977.72
2023-05-14T04:39:15.167Z,101976.88
2023-05-14T04:41:42.883Z,101986.81
2023-05-14T04:44:09.856Z,101986.31
2023-05-14T04:46:36.895Z,101986.19
2023-05-14T04:49:04.384Z,101991.00
2023-05-14T04:51:31.818Z,101994.97
2023-05-14T04:53:58.886Z,101994.63
2023-05-14T04:56:26.068Z,101994.22
2023-05-14T04:58:53.048Z,101986.88
2023-05-14T05:01:20.210Z,101994.66
2023-05-14T05:03:47.275Z,101995.31
2023-05-14T05:06:14.255Z,101994.22
2023-05-14T05:08:41.680Z,101990.41
2023-05-14T05:11:08.806Z,101996.69
2023-05-14T05:13:36.032Z,101991.69
2023-05-14T05:16:03.083Z,101990.66
2023-05-14T05:18:30.205Z,101993.16
2023-05-14T05:20:57.298Z,101986.88
2023-05-14T05:23:24.347Z,101984.91
2023-05-14T05:25:51.353Z,101990.03
2023-05-14T05:28:18.336Z,101989.03
2023-05-14T05:30:45.513Z,101984.84
2023-05-14T05:33:13.024Z,101992.06
2023-05-14T05:35:40.112Z,101985.69
2023-05-14T05:38:07.414Z,101981.97
2023-05-14T05:40:34.429Z,101985.56
2023-05-14T05:43:01.442Z,101980.63
2023-05-14T05:45:28.479Z,101986.13
2023-05-14T05:47:55.509Z,101976.69
2023-05-14T05:50:22.923Z,101981.56
2023-05-14T05:52:50.265Z,101982.81
2023-05-14T05:55:17.249Z,101980.88
2023-05-14T05:57:44.253Z,101984.09
2023-05-14T06:00:14.555Z,101980.22
2023-05-14T06:02:41.987Z,101982.53
2023-05-14T06:05:10.191Z,101987.75
2023-05-14T06:07:37.231Z,101978.53
2023-05-14T06:10:05.050Z,101983.53
2023-05-14T06:12:32.116Z,101983.91
2023-05-14T06:14:59.097Z,101984.06
2023-05-14T06:17:26.243Z,101981.03
2023-05-14T06:19:53.498Z,101989.06
2023-05-14T06:22:20.574Z,101994.16
2023-05-14T06:24:48.462Z,102001.06
2023-05-14T06:27:15.570Z,101993.22
2023-05-14T06:29:42.683Z,101990.16
2023-05-14T06:32:10.438Z,101993.31
2023-05-14T06:34:37.549Z,101993.00
2023-05-14T06:37:04.810Z,101993.00
2023-05-14T06:39:31.849Z,101998.94
2023-05-14T06:41:58.838Z,101996.75
2023-05-14T06:44:25.866Z,101996.91
2023-05-14T06:46:52.969Z,101998.47
2023-05-14T06:49:19.984Z,102009.53
2023-05-14T06:51:47.320Z,101994.81
2023-05-14T06:54:14.373Z,101998.00
2023-05-14T06:56:41.382Z,101998.09
2023-05-14T06:59:08.397Z,101999.31
2023-05-14T07:01:35.471Z,101994.34
2023-05-14T07:04:02.615Z,101995.41
2023-05-14T07:06:29.633Z,101995.63
2023-05-14T07:08:56.618Z,101992.31
2023-05-14T07:11:23.671Z,101989.28
2023-05-14T07:13:50.700Z,101983.41
2023-05-14T07:16:17.810Z,101984.59
2023-05-14T07:18:45.764Z,101986.19
2023-05-14T07:21:12.835Z,101992.00
2023-05-14T07:23:39.893Z,101990.06
2023-05-14T07:26:08.164Z,101985.66
2023-05-14T07:28:35.226Z,101973.00
2023-05-14T07:31:09.226Z,101976.88
2023-05-14T07:33:36.742Z,101972.22
2023-05-14T07:36:03.983Z,101979.00
2023-05-14T07:38:31.301Z,101975.22
2023-05-14T07:40:58.658Z,101969.47
2023-05-14T07:43:26.198Z,101962.66
2023-05-14T07:45:53.337Z,101966.78
2023-05-14T07:48:20.479Z,101968.94
2023-05-14T07:50:48.915Z,101975.34
2023-05-14T07:53:16.050Z,101977.50
2023-05-14T07:55:44.957Z,101976.56
2023-05-14T07:58:12.002Z,101974.09
2023-05-14T08:00:39.327Z,101970.84
2023-05-14T08:03:06.811Z,101968.25
2023-05-14T08:05:33.969Z,101961.06
2023-05-14T08:08:01.019Z,101958.97
2023-05-14T08:10:28.313Z,101959.53
2023-05-14T08:12:55.489Z,101960.25
2023-05-14T08:15:25.179Z,101958.44
2023-05-14T08:17:54.180Z,101958.22
2023-05-14T08:20:21.312Z,101955.53
2023-05-14T08:22:48.531Z,101955.84
2023-05-14T08:25:15.486Z,101952.59
2023-05-14T08:27:42.554Z,101951.19
2023-05-14T08:30:09.818Z,101955.03
2023-05-14T08:32:38.828Z,101951.50
2023-05-14T08:35:06.958Z,101949.97
2023-05-14T08:37:34.003Z,101948.84
2023-05-14T08:40:01.091Z,101942.75
2023-05-14T08:42:28.960Z,101939.66
2023-05-14T08:45:03.802Z,101934.28
2023-05-14T08:47:31.528Z,101940.50
2023-05-14T08:50:06.670Z,101933.72
2023-05-14T08:52:34.989Z,101930.47
2023-05-14T08:55:05.813Z,101934.56
2023-05-14T08:57:34.429Z,101923.25
2023-05-14T09:00:07.506Z,101921.00
2023-05-14T09:02:36.093Z,101917.31
2023-05-14T09:05:04.285Z,101922.13
2023-05-14T09:07:31.922Z,101926.63
2023-05-14T09:09:59.448Z,101917.44
2023-05-14T09:12:26.528Z,101912.91
2023-05-14T09:14:56.454Z,101912.06
2023-05-14T09:17:26.091Z,101917.72
2023-05-14T09:19:53.426Z,101917.88
2023-05-14T09:22:21.215Z,101911.50
2023-05-14T09:25:06.183Z,101916.84
2023-05-14T09:27:33.605Z,101910.63
2023-05-14T09:30:13.586Z,101913.59
2023-05-14T09:32:44.329Z,101909.31
2023-05-14T09:35:17.755Z,101898.69
2023-05-14T09:37:50.193Z,101896.00
2023-05-14T09:40:18.724Z,101898.28
2023-05-14T09:42:46.033Z,101895.59
2023-05-14T09:45:13.078Z,101895.03
2023-05-14T09:47:40.424Z,101893.47
2023-05-14T09:50:08.409Z,101888.81
2023-05-14T09:52:36.094Z,101887.41
2023-05-14T09:55:03.382Z,101892.41
2023-05-14T09:57:30.459Z,101887.03
2023-05-14T09:59:57.523Z,101889.31
2023-05-14T10:02:26.633Z,101887.75
2023-05-14T10:04:54.889Z,101883.78
2023-05-14T10:07:33.799Z,101878.25
2023-05-14T10:10:03.987Z,101880.63
2023-05-14T10:12:34.983Z,101881.78
2023-05-14T10:15:07.053Z,101879.25
2023-05-14T10:17:36.947Z,101870.03
2023-05-14T10:20:05.960Z,101873.81
2023-05-14T10:22:35.320Z,101871.41
2023-05-14T10:25:04.135Z,101869.41
2023-05-14T10:27:32.138Z,101866.13
2023-05-14T10:29:59.208Z,101864.97
2023-05-14T10:32:26.681Z,101863.47
2023-05-14T10:34:54.182Z,101859.03
2023-05-14T10:37:27.394Z,101857.28
2023-05-14T10:39:59.171Z,101853.69
2023-05-14T10:42:28.715Z,101843.31
2023-05-14T10:45:02.001Z,101854.94
2023-05-14T10:47:29.435Z,101849.50
2023-05-14T10:49:58.910Z,101849.59
2023-05-14T10:52:27.051Z,101842.69
2023-05-14T10:55:00.644Z,101841.47
2023-05-14T10:57:31.792Z,101840.22
2023-05-14T11:00:00.707Z,101829.03
2023-05-14T11:02:37.378Z,101834.97
2023-05-14T11:05:08.423Z,101821.50
2023-05-14T11:07:40.486Z,101830.63
2023-05-14T11:10:09.601Z,101828.56
2023-05-14T11:12:39.263Z,101819.09
2023-05-14T11:15:09.595Z,101825.94
2023-05-14T11:17:37.602Z,101821.31
2023-05-14T11:20:06.655Z,101825.28
2023-05-14T11:22:37.896Z,101815.25
2023-05-14T11:25:06.500Z,101815.09
2023-05-14T11:27:39.646Z,101806.00
2023-05-14T11:30:14.340Z,101805.03
2023-05-14T11:32:42.057Z,101804.97
2023-05-14T11:35:09.326Z,101804.56
2023-05-14T11:37:36.429Z,101803.72
2023-05-14T11:40:14.123Z,101803.28
2023-05-14T11:42:41.235Z,101801.13
2023-05-14T11:45:12.281Z,101800.13
2023-05-14T11:47:41.490Z,101791.75
2023-05-14T11:50:09.847Z,101788.34
2023-05-14T11:52:41.509Z,101786.38
2023-05-14T11:55:12.968Z,101779.78
2023-05-14T11:57:41.232Z,101788.75
2023-05-14T12:00:21.553Z,101787.03
2023-05-14T12:02:50.307Z,101785.38
2023-05-14T12:05:17.566Z,101780.75
2023-05-14T12:07:45.463Z,101776.50
2023-05-14T12:10:13.219Z,101779.66
2023-05-14T12:12:40.196Z,101775.56
2023-05-14T12:15:14.690Z,101776.81
2023-05-14T12:17:42.367Z,101768.38
2023-05-14T12:20:11.185Z,101772.34
2023-05-14T12:25:13.517Z,101759.28
2023-05-14T12:27:40.769Z,101759.69
2023-05-14T12:32:41.300Z,101748.53
2023-05-14T12:35:09.295Z,101744.63
2023-05-14T12:37:37.652Z,101742.72
2023-05-14T12:40:09.482Z,101745.19
2023-05-14T12:43:23.194Z,101736.13
2023-05-14T12:45:50.175Z,101741.09
2023-05-14T12:48:17.237Z,101734.53
2023-05-14T12:50:44.190Z,101726.63
2023-05-14T12:53:11.260Z,101733.41
2023-05-14T12:55:38.286Z,101726.78
2023-05-14T12:58:05.300Z,101724.25
2023-05-14T13:00:32.303Z,101718.72
2023-05-14T13:02:59.301Z,101710.81
2023-05-14T13:05:26.511Z,101702.06
2023-05-14T13:07:53.987Z,101699.03
2023-05-14T13:10:21.113Z,101701.50
2023-05-14T13:12:48.174Z,101698.84
2023-05-14T13:15:15.236Z,101701.19
2023-05-14T13:17:42.339Z,101689.75
2023-05-14T13:20:09.951Z,101684.00
2023-05-14T13:22:36.959Z,101676.81
2023-05-14T13:25:04.519Z,101678.13
2023-05-14T13:27:31.759Z,101669.38
2023-05-14T13:29:58.786Z,101661.81
2023-05-14T13:32:26.111Z,101657.28
2023-05-14T13:34:53.160Z,101661.50
2023-05-14T13:37:20.210Z,101662.47
2023-05-14T13:39:48.009Z,101656.22
2023-05-14T13:42:16.095Z,101656.25
2023-05-14T13:44:43.072Z,101662.31
2023-05-14T13:47:10.606Z,101651.47
2023-05-14T13:49:37.570Z,101653.72
2023-05-14T13:52:05.003Z,101655.19
2023-05-14T13:54:32.020Z,101652.34
2023-05-14T13:56:59.077Z,101653.22
2023-05-14T13:59:26.378Z,101645.22
2023-05-14T14:01:53.522Z,101639.06
2023-05-14T14:04:20.727Z,101643.28
2023-05-14T14:06:47.738Z,101636.25
2023-05-14T14:09:14.903Z,101631.88
2023-05-14T14:11:41.931Z,101626.03
2023-05-14T14:14:08.965Z,101627.91
2023-05-14T14:16:36.393Z,101620.47
2023-05-14T14:19:03.587Z,101625.53
2023-05-14T14:21:31.296Z,101623.69
2023-05-14T14:23:58.420Z,101614.13
2023-05-14T14:26:25.523Z,101617.16
2023-05-14T14:28:52.503Z,101617.50
2023-05-14T14:31:20.880Z,101611.75
2023-05-14T14:33:47.898Z,101610.22
2023-05-14T14:36:14.970Z,101611.72
2023-05-14T14:38:42.154Z,101612.88
2023-05-14T14:41:10.323Z,101608.31
2023-05-14T14:43:40.370Z,101602.72
2023-05-14T14:46:09.389Z,101610.28
2023-05-14T14:48:39.292Z,101609.13
2023-05-14T14:51:07.425Z,101604.41
2023-05-14T14:53:35.836Z,101604.38
2023-05-14T14:56:03.641Z,101605.91
2023-05-14T14:58:31.346Z,101604.78
2023-05-14T15:00:58.862Z,101601.78
2023-05-14T15:03:26.469Z,101605.03
2023-05-14T15:05:53.953Z,101595.88
2023-05-14T15:08:26.527Z,101592.66
2023-05-14T15:10:55.067Z,101595.66
2023-05-14T15:13:22.286Z,101596.47
2023-05-14T15:15:50.976Z,101595.78
2023-05-14T15:18:18.104Z,101591.22
2023-05-14T15:20:45.207Z,101590.06
2023-05-14T15:23:12.214Z,101588.69
2023-05-14T15:25:39.323Z,101587.34
2023-05-14T15:28:07.801Z,101585.16
2023-05-14T15:30:35.284Z,101585.31
2023-05-14T15:33:02.406Z,101584.19
2023-05-14T15:35:29.486Z,101583.03
2023-05-14T15:37:57.492Z,101571.53
2023-05-14T15:40:24.961Z,101579.69
2023-05-14T15:42:52.196Z,101566.41
2023-05-14T15:45:19.364Z,101573.44
2023-05-14T15:47:46.460Z,101572.63
2023-05-14T15:50:13.520Z,101568.03
2023-05-14T15:52:41.645Z,101562.44
2023-05-14T15:55:09.069Z,101566.53
2023-05-14T15:57:36.137Z,101564.66
2023-05-14T16:00:13.080Z,101568.25
2023-05-14T16:02:40.426Z,101565.50
2023-05-14T16:05:08.553Z,101558.44
2023-05-14T16:07:36.464Z,101556.06
2023-05-14T16:10:04.077Z,101557.91
2023-05-14T16:12:31.228Z,101553.88
2023-05-14T16:14:58.596Z,101561.78
2023-05-14T16:17:27.835Z,101564.78
2023-05-14T16:19:56.253Z,101568.84
2023-05-14T16:22:23.703Z,101589.75
2023-05-14T16:24:50.970Z,101583.34
2023-05-14T16:27:19.294Z,101584.66
2023-05-14T16:29:46.368Z,101587.22
2023-05-14T16:32:13.643Z,101590.19
2023-05-14T16:34:40.911Z,101583.88
2023-05-14T16:37:08.252Z,101590.69
2023-05-14T16:39:35.249Z,101599.78
2023-05-14T16:42:02.204Z,101580.59
2023-05-14T16:44:29.281Z,101583.91
2023-05-14T16:46:56.501Z,101586.78
2023-05-14T16:49:23.611Z,101588.09
2023-05-14T16:51:50.720Z,101585.72
2023-05-14T16:54:17.730Z,101586.06
2023-05-14T16:56:48.360Z,101586.84
2023-05-14T16:59:16.186Z,101585.34
2023-05-14T17:01:44.405Z,101581.41
2023-05-14T17:04:11.558Z,101582.13
2023-05-14T17:06:38.643Z,101587.81
2023-05-14T17:09:07.008Z,101578.78
2023-05-14T17:11:34.059Z,101577.69
2023-05-14T17:14:01.191Z,101578.78
2023-05-14T17:16:28.777Z,101578.94
2023-05-14T17:18:56.008Z,101578.94
2023-05-14T17:21:23.101Z,101576.53
2023-05-14T17:23:50.331Z,101568.06
2023-05-14T17:26:17.375Z,101572.16
2023-05-14T17:28:44.483Z,101568.78
2023-05-14T17:31:11.534Z,101570.34
2023-05-14T17:33:38.688Z,101562.03
2023-05-14T17:36:05.886Z,101562.94
2023-05-14T17:38:32.856Z,101566.38
2023-05-14T17:40:59.909Z,101560.75
2023-05-14T17:43:26.963Z,101568.41
2023-05-14T17:45:54.882Z,101572.41
2023-05-14T17:48:23.284Z,101572.72
2023-05-14T17:50:51.828Z,101572.84
2023-05-14T17:53:18.977Z,101571.47
2023-05-14T17:55:46.011Z,101571.63
2023-05-14T17:58:15.604Z,101568.69
2023-05-14T18:00:43.750Z,101572.63
2023-05-14T18:03:11.708Z,101569.94
2023-05-14T18:05:39.408Z,101564.94
2023-05-14T18:08:06.588Z,101564.81
2023-05-14T18:10:33.574Z,101562.59
2023-05-14T18:13:00.915Z,101568.09
2023-05-14T18:15:28.063Z,101565.19
2023-05-14T18:17:55.377Z,101564.81
2023-05-14T18:20:22.652Z,101564.00
2023-05-14T18:22:50.845Z,101567.38
2023-05-14T18:25:18.212Z,101559.72
2023-05-14T18:27:45.704Z,101563.84
2023-05-14T18:30:15.264Z,101561.75
2023-05-14T18:32:44.613Z,101563.97
2023-05-14T18:35:12.961Z,101571.31
2023-05-14T18:37:41.247Z,101561.28
2023-05-14T18:40:09.840Z,101567.16
2023-05-14T18:42:37.352Z,101566.00
2023-05-14T18:45:05.327Z,101566.41
2023-05-14T18:47:33.821Z,101572.63
2023-05-14T18:50:02.246Z,101563.47
2023-05-14T18:52:30.041Z,101568.56
2023-05-14T18:54:57.707Z,101564.91
2023-05-14T18:57:27.506Z,101564.06
2023-05-14T18:59:54.978Z,101564.69
2023-05-14T19:02:22.270Z,101565.53
2023-05-14T19:04:52.656Z,101563.00
2023-05-14T19:07:21.925Z,101561.00
2023-05-14T19:09:49.360Z,101565.53
2023-05-14T19:12:17.116Z,101561.13
2023-05-14T19:14:44.311Z,101556.03
2023-05-14T19:17:11.887Z,101563.34
2023-05-14T19:19:39.867Z,101560.13
2023-05-14T19:22:07.493Z,101558.88
2023-05-14T19:24:34.844Z,101570.44
2023-05-14T19:27:01.933Z,101570.03
2023-05-14T19:29:29.262Z,101570.19
2023-05-14T19:31:56.403Z,101573.00
2023-05-14T19:34:23.624Z,101571.28
2023-05-14T19:36:50.980Z,101579.28
2023-05-14T19:39:17.988Z,101574.63
2023-05-14T19:41:45.381Z,101577.31
2023-05-14T19:44:12.431Z,101572.00
2023-05-14T19:46:40.642Z,101575.78
2023-05-14T19:49:07.652Z,101568.28
2023-05-14T19:51:34.696Z,101574.59
2023-05-14T19:54:01.670Z,101571.53
2023-05-14T19:56:29.089Z,101574.22
2023-05-14T19:58:56.330Z,101569.97
2023-05-14T20:01:23.406Z,101570.28
2023-05-14T20:03:50.569Z,101567.00
2023-05-14T20:06:17.689Z,101563.31
2023-05-14T20:08:45.549Z,101559.19
2023-05-14T20:11:12.822Z,101560.84
2023-05-14T20:13:39.763Z,101563.38
2023-05-14T20:16:06.898Z,101563.84
2023-05-14T20:18:33.989Z,101573.75
2023-05-14T20:21:01.430Z,101576.09
2023-05-14T20:23:28.654Z,101579.63
2023-05-14T20:25:55.844Z,101576.88
2023-05-14T20:28:22.793Z,101569.22
2023-05-14T20:30:49.828Z,101566.41
2023-05-14T20:33:17.151Z,101566.16
2023-05-14T20:35:44.345Z,101568.47
2023-05-14T20:38:13.014Z,101570.31
2023-05-14T20:40:40.500Z,101567.63
2023-05-14T20:43:07.558Z,101568.47
2023-05-14T20:45:34.590Z,101566.78
2023-05-14T20:48:01.785Z,101567.06
2023-05-14T20:50:28.959Z,101567.59
2023-05-14T20:52:55.962Z,101560.53
2023-05-14T20:55:23.540Z,101560.13
2023-05-14T20:57:50.939Z,101551.84
2023-05-14T21:00:18.462Z,101556.09
2023-05-14T21:02:45.862Z,101553.09
2023-05-14T21:05:14.285Z,101553.81
2023-05-14T21:07:41.333Z,101547.63
2023-05-14T21:10:09.588Z,101542.47
2023-05-14T21:12:36.684Z,101543.47
2023-05-14T21:15:03.968Z,101542.88
2023-05-14T21:17:31.114Z,101537.88
2023-05-14T21:19:58.149Z,101544.44
2023-05-14T21:22:25.357Z,101532.94
2023-05-14T21:24:52.380Z,101535.97
2023-05-14T21:27:19.432Z,101530.44
2023-05-14T21:29:46.784Z,101530.91
2023-05-14T21:32:13.972Z,101534.53
2023-05-14T21:34:40.977Z,101523.47
2023-05-14T21:37:08.007Z,101533.44
2023-05-14T21:39:35.202Z,101524.44
2023-05-14T21:42:02.322Z,101528.09
2023-05-14T21:44:29.338Z,101522.75
2023-05-14T21:46:56.455Z,101526.03
2023-05-14T21:49:23.754Z,101519.91
2023-05-14T21:51:53.273Z,101517.84
2023-05-14T21:54:21.107Z,101521.28
2023-05-14T21:56:48.320Z,101512.56
2023-05-14T21:59:15.413Z,101519.25
2023-05-14T22:02:00.718Z,101511.53
2023-05-14T22:04:30.056Z,101512.38
2023-05-14T22:06:57.043Z,101511.25
2023-05-14T22:09:24.122Z,101506.13
2023-05-14T22:11:51.123Z,101504.25
2023-05-14T22:14:18.337Z,101512.41
2023-05-14T22:16:45.390Z,101520.69
2023-05-14T22:19:12.541Z,101505.94
2023-05-14T22:21:39.561Z,101503.63
2023-05-14T22:24:06.893Z,101503.28
2023-05-14T22:26:35.018Z,101504.50
2023-05-14T22:29:02.035Z,101496.78
2023-05-14T22:31:30.160Z,101499.38
2023-05-14T22:33:57.175Z,101493.25
2023-05-14T22:36:24.145Z,101489.59
2023-05-14T22:38:51.202Z,101491.69
2023-05-14T22:41:18.400Z,101484.56
2023-05-14T22:43:48.826Z,101479.22
2023-05-14T22:46:16.274Z,101483.97
2023-05-14T22:48:43.394Z,101470.25
2023-05-14T22:51:10.524Z,101479.22
2023-05-14T22:53:37.553Z,101475.72
2023-05-14T22:56:04.907Z,101468.81
2023-05-14T22:58:31.959Z,101472.22
2023-05-14T23:00:59.099Z,101468.44
2023-05-14T23:03:26.186Z,101472.91
2023-05-14T23:05:53.522Z,101471.28
2023-05-14T23:08:20.653Z,101476.09
2023-05-14T23:10:47.705Z,101476.00
2023-05-14T23:13:14.824Z,101467.44
2023-05-14T23:15:44.089Z,101461.84
2023-05-14T23:18:11.165Z,101464.97
2023-05-14T23:20:38.156Z,101460.69
2023-05-14T23:23:06.538Z,101455.41
2023-05-14T23:25:33.594Z,101450.13
2023-05-14T23:28:00.786Z,101451.22
2023-05-14T23:30:27.886Z,101437.13
2023-05-14T23:32:54.948Z,101443.09
2023-05-14T23:35:22.136Z,101438.28
2023-05-14T23:37:51.095Z,101435.53
2023-05-14T23:40:18.350Z,101431.09
2023-05-14T23:42:45.439Z,101432.44
2023-05-14T23:45:13.524Z,101421.56
2023-05-14T23:47:41.389Z,101416.84
2023-05-14T23:50:08.667Z,101419.88
2023-05-14T23:52:35.697Z,101414.44
2023-05-14T23:55:02.785Z,101413.88
2023-05-14T23:57:29.995Z,101414.69
2023-05-14T23:59:57.203Z,101415.41
